createdAt,value
2022-12-19T00:00:12.264Z,-4.09
2022-12-19T00:01:13.091Z,-4.08
2022-12-19T00:02:14.983Z,-4.1
2022-12-19T00:03:16.682Z,-4.08
2022-12-19T00:04:18.283Z,-4.1
2022-12-19T00:05:20.035Z,-4.08
2022-12-19T00:06:21.749Z,-4.09
2022-12-19T00:07:23.632Z,-4.08
2022-12-19T00:08:25.224Z,-4.09
2022-12-19T00:09:26.954Z,-4.07
2022-12-19T00:10:28.691Z,-4.06
2022-12-19T00:11:30.436Z,-4.05
2022-12-19T00:12:32.149Z,-4.05
2022-12-19T00:13:39.924Z,-4.07
2022-12-19T00:14:35.605Z,-4.05
2022-12-19T00:15:37.342Z,-4.05
2022-12-19T00:16:39.186Z,-4.04
2022-12-19T00:17:40.814Z,-4.04
2022-12-19T00:18:42.539Z,-4.03
2022-12-19T00:19:44.528Z,-4.02
2022-12-19T00:20:46.001Z,-4.04
2022-12-19T00:21:47.738Z,-4.02
2022-12-19T00:22:50.989Z,-4.03
2022-12-19T00:23:51.209Z,-4.02
2022-12-19T00:24:52.960Z,-4.02
2022-12-19T00:25:54.672Z,-4.01
2022-12-19T00:26:56.403Z,-4.02
2022-12-19T00:27:58.144Z,-4
2022-12-19T00:28:59.878Z,-4
2022-12-19T00:30:01.626Z,-4.01
2022-12-19T00:31:03.320Z,-3.99
2022-12-19T00:32:05.157Z,-3.99
2022-12-19T00:33:06.796Z,-3.98
2022-12-19T00:34:08.522Z,-3.98
2022-12-19T00:35:10.282Z,-3.97
2022-12-19T00:36:12.010Z,-3.97
2022-12-19T00:37:13.763Z,-3.96
2022-12-19T00:38:15.464Z,-3.97
2022-12-19T00:39:17.212Z,-3.96
2022-12-19T00:40:18.946Z,-3.97
2022-12-19T00:41:20.665Z,-3.97
2022-12-19T00:42:22.650Z,-3.95
2022-12-19T00:43:24.211Z,-3.95
2022-12-19T00:44:25.869Z,-3.94
2022-12-19T00:45:27.655Z,-3.95
2022-12-19T00:46:29.342Z,-3.94
2022-12-19T00:47:31.063Z,-3.94
2022-12-19T00:48:32.790Z,-3.94
2022-12-19T00:49:34.521Z,-3.95
2022-12-19T00:50:36.276Z,-3.96
2022-12-19T00:51:37.994Z,-3.96
2022-12-19T00:52:39.737Z,-3.95
2022-12-19T00:53:41.452Z,-3.96
2022-12-19T00:54:43.351Z,-3.94
2022-12-19T00:55:44.919Z,-3.93
2022-12-19T00:56:46.658Z,-3.95
2022-12-19T00:57:48.397Z,-3.94
2022-12-19T00:58:50.141Z,-3.94
2022-12-19T00:59:51.867Z,-3.92
2022-12-19T01:00:53.654Z,-3.92
2022-12-19T01:01:55.430Z,-3.92
2022-12-19T01:02:57.193Z,-3.92
2022-12-19T01:04:27.241Z,-3.92
2022-12-19T01:05:00.541Z,-3.92
2022-12-19T01:06:02.313Z,-3.91
2022-12-19T01:07:03.995Z,-3.9
2022-12-19T01:08:05.730Z,-3.89
2022-12-19T01:09:07.465Z,-3.89
2022-12-19T01:10:09.200Z,-3.89
2022-12-19T01:11:10.930Z,-3.9
2022-12-19T01:12:12.665Z,-3.9
2022-12-19T01:13:14.402Z,-3.87
2022-12-19T01:14:20.823Z,-3.89
2022-12-19T01:15:17.869Z,-3.88
2022-12-19T01:16:19.662Z,-3.87
2022-12-19T01:17:21.314Z,-3.87
2022-12-19T01:18:23.296Z,-3.86
2022-12-19T01:19:24.800Z,-3.87
2022-12-19T01:20:29.821Z,-3.86
2022-12-19T01:21:28.256Z,-3.86
2022-12-19T01:22:30.004Z,-3.85
2022-12-19T01:23:31.727Z,-3.85
2022-12-19T01:24:33.479Z,-3.84
2022-12-19T01:25:35.203Z,-3.83
2022-12-19T01:26:36.930Z,-3.8
2022-12-19T01:27:38.669Z,-3.77
2022-12-19T01:28:40.410Z,-3.76
2022-12-19T01:29:44.661Z,-3.71
2022-12-19T01:30:43.884Z,-3.68
2022-12-19T01:31:45.719Z,-3.67
2022-12-19T01:32:47.334Z,-3.65
2022-12-19T01:33:50.658Z,-3.66
2022-12-19T01:34:50.791Z,-3.65
2022-12-19T01:35:52.530Z,-3.64
2022-12-19T01:36:54.266Z,-3.64
2022-12-19T01:38:05.703Z,-3.65
2022-12-19T01:38:57.734Z,-3.66
2022-12-19T01:39:59.462Z,-3.66
2022-12-19T01:41:01.208Z,-3.65
2022-12-19T01:42:03.059Z,-3.64
2022-12-19T01:43:04.670Z,-3.65
2022-12-19T01:44:06.396Z,-3.65
2022-12-19T01:45:08.155Z,-3.65
2022-12-19T01:46:09.890Z,-3.67
2022-12-19T01:47:11.591Z,-3.66
2022-12-19T01:48:13.342Z,-3.66
2022-12-19T01:49:15.053Z,-3.67
2022-12-19T01:50:16.798Z,-3.67
2022-12-19T01:51:18.544Z,-3.68
2022-12-19T01:52:23.745Z,-3.68
2022-12-19T01:53:21.996Z,-3.68
2022-12-19T01:54:23.894Z,-3.67
2022-12-19T01:55:25.475Z,-3.69
2022-12-19T01:56:27.192Z,-3.69
2022-12-19T01:57:28.901Z,-3.68
2022-12-19T01:58:30.646Z,-3.7
2022-12-19T01:59:32.364Z,-3.69
2022-12-19T02:00:34.120Z,-3.7
2022-12-19T02:01:35.945Z,-3.69
2022-12-19T02:02:37.707Z,-3.71
2022-12-19T02:03:39.321Z,-3.7
2022-12-19T02:04:41.036Z,-3.7
2022-12-19T02:05:42.801Z,-3.7
2022-12-19T02:06:44.644Z,-3.69
2022-12-19T02:07:46.235Z,-3.7
2022-12-19T02:08:47.967Z,-3.7
2022-12-19T02:09:56.620Z,-3.71
2022-12-19T02:10:51.457Z,-3.7
2022-12-19T02:11:53.179Z,-3.7
2022-12-19T02:12:54.901Z,-3.7
2022-12-19T02:13:56.642Z,-3.69
2022-12-19T02:15:02.595Z,-3.69
2022-12-19T02:16:00.117Z,-3.7
2022-12-19T02:17:01.827Z,-3.7
2022-12-19T02:18:03.687Z,-3.68
2022-12-19T02:19:05.327Z,-3.7
2022-12-19T02:20:07.054Z,-3.69
2022-12-19T02:21:08.781Z,-3.67
2022-12-19T02:22:13.703Z,-3.67
2022-12-19T02:23:12.239Z,-3.66
2022-12-19T02:24:14.003Z,-3.67
2022-12-19T02:25:15.716Z,-3.66
2022-12-19T02:26:17.432Z,-3.67
2022-12-19T02:27:19.170Z,-3.66
2022-12-19T02:28:20.887Z,-3.66
2022-12-19T02:29:22.676Z,-3.66
2022-12-19T02:30:24.368Z,-3.66
2022-12-19T02:31:26.162Z,-3.66
2022-12-19T02:32:27.846Z,-3.67
2022-12-19T02:33:29.569Z,-3.66
2022-12-19T02:34:31.312Z,-3.66
2022-12-19T02:35:33.061Z,-3.65
2022-12-19T02:36:38.149Z,-3.65
2022-12-19T02:37:36.507Z,-3.66
2022-12-19T02:38:38.251Z,-3.64
2022-12-19T02:39:39.989Z,-3.65
2022-12-19T02:40:41.724Z,-3.64
2022-12-19T02:41:43.544Z,-3.64
2022-12-19T02:42:45.180Z,-3.63
2022-12-19T02:43:47.642Z,-3.64
2022-12-19T02:44:48.652Z,-3.63
2022-12-19T02:45:50.509Z,-3.62
2022-12-19T02:46:52.113Z,-3.62
2022-12-19T02:47:53.853Z,-3.62
2022-12-19T02:48:55.575Z,-3.61
2022-12-19T02:49:57.317Z,-3.6
2022-12-19T02:50:59.043Z,-3.6
2022-12-19T02:52:00.789Z,-3.59
2022-12-19T02:53:02.537Z,-3.58
2022-12-19T02:54:04.362Z,-3.58
2022-12-19T02:55:05.988Z,-3.59
2022-12-19T02:56:10.509Z,-3.58
2022-12-19T02:57:09.468Z,-3.58
2022-12-19T02:58:11.190Z,-3.58
2022-12-19T02:59:12.935Z,-3.57
2022-12-19T03:00:14.655Z,-3.57
2022-12-19T03:01:16.432Z,-3.57
2022-12-19T03:02:18.379Z,-3.57
2022-12-19T03:03:19.926Z,-3.58
2022-12-19T03:04:21.595Z,-3.57
2022-12-19T03:05:23.413Z,-3.55
2022-12-19T03:06:25.064Z,-3.55
2022-12-19T03:07:26.824Z,-3.55
2022-12-19T03:08:28.537Z,-3.52
2022-12-19T03:09:30.283Z,-3.51
2022-12-19T03:10:32.006Z,-3.49
2022-12-19T03:11:33.737Z,-3.48
2022-12-19T03:12:35.503Z,-3.48
2022-12-19T03:13:37.240Z,-3.49
2022-12-19T03:14:38.932Z,-3.48
2022-12-19T03:15:40.668Z,-3.47
2022-12-19T03:16:43.919Z,-3.45
2022-12-19T03:17:44.245Z,-3.45
2022-12-19T03:18:45.868Z,-3.45
2022-12-19T03:19:47.604Z,-3.44
2022-12-19T03:20:49.344Z,-3.45
2022-12-19T03:21:51.065Z,-3.44
2022-12-19T03:22:52.815Z,-3.45
2022-12-19T03:23:54.558Z,-3.42
2022-12-19T03:24:56.263Z,-3.4
2022-12-19T03:25:58.002Z,-3.4
2022-12-19T03:26:59.732Z,-3.41
2022-12-19T03:28:01.512Z,-3.39
2022-12-19T03:29:03.193Z,-3.4
2022-12-19T03:30:04.967Z,-3.4
2022-12-19T03:31:06.754Z,-3.39
2022-12-19T03:32:08.413Z,-3.39
2022-12-19T03:33:10.188Z,-3.38
2022-12-19T03:34:15.211Z,-3.39
2022-12-19T03:35:16.959Z,-3.37
2022-12-19T03:36:18.682Z,-3.38
2022-12-19T03:37:20.428Z,-3.37
2022-12-19T03:38:22.182Z,-3.37
2022-12-19T03:39:23.882Z,-3.35
2022-12-19T03:40:25.644Z,-3.35
2022-12-19T03:41:27.340Z,-3.35
2022-12-19T03:42:29.079Z,-3.33
2022-12-19T03:43:30.825Z,-3.34
2022-12-19T03:44:32.546Z,-3.32
2022-12-19T03:45:34.306Z,-3.32
2022-12-19T03:46:36.012Z,-3.3
2022-12-19T03:47:37.750Z,-3.29
2022-12-19T03:48:39.506Z,-3.26
2022-12-19T03:49:41.215Z,-3.25
2022-12-19T03:50:42.943Z,-3.23
2022-12-19T03:51:44.684Z,-3.21
2022-12-19T03:52:46.426Z,-3.22
2022-12-19T03:53:48.152Z,-3.19
2022-12-19T03:54:49.884Z,-3.18
2022-12-19T03:55:51.625Z,-3.17
2022-12-19T03:56:53.361Z,-3.17
2022-12-19T03:57:55.102Z,-3.17
2022-12-19T03:58:56.821Z,-3.16
2022-12-19T03:59:58.547Z,-3.16
2022-12-19T04:01:00.359Z,-3.14
2022-12-19T04:02:02.185Z,-3.15
2022-12-19T04:03:03.790Z,-3.13
2022-12-19T04:04:05.486Z,-3.13
2022-12-19T04:05:07.235Z,-3.11
2022-12-19T04:06:08.972Z,-3.1
2022-12-19T04:07:10.689Z,-3.09
2022-12-19T04:08:12.419Z,-3.09
2022-12-19T04:09:19.267Z,-3.09
2022-12-19T04:10:15.901Z,-3.08
2022-12-19T04:11:17.612Z,-3.09
2022-12-19T04:12:19.344Z,-3.08
2022-12-19T04:13:21.071Z,-3.08
2022-12-19T04:14:23.061Z,-3.08
2022-12-19T04:15:24.561Z,-3.09
2022-12-19T04:16:26.300Z,-3.08
2022-12-19T04:17:28.025Z,-3.09
2022-12-19T04:18:29.768Z,-3.09
2022-12-19T04:19:31.482Z,-3.09
2022-12-19T04:20:33.236Z,-3.1
2022-12-19T04:21:34.953Z,-3.11
2022-12-19T04:22:36.687Z,-3.11
2022-12-19T04:23:38.449Z,-3.09
2022-12-19T04:24:40.157Z,-3.11
2022-12-19T04:25:41.890Z,-3.1
2022-12-19T04:26:43.615Z,-3.09
2022-12-19T04:27:45.362Z,-3.09
2022-12-19T04:28:47.097Z,-3.08
2022-12-19T04:29:48.861Z,-3.09
2022-12-19T04:30:50.630Z,-3.09
2022-12-19T04:31:52.289Z,-3.08
2022-12-19T04:32:54.022Z,-3.08
2022-12-19T04:33:55.771Z,-3.08
2022-12-19T04:34:57.530Z,-3.07
2022-12-19T04:35:59.213Z,-3.07
2022-12-19T04:37:00.978Z,-3.06
2022-12-19T04:38:02.825Z,-3.07
2022-12-19T04:39:04.449Z,-3.06
2022-12-19T04:40:06.162Z,-3.06
2022-12-19T04:41:07.883Z,-3.08
2022-12-19T04:42:09.634Z,-3.07
2022-12-19T04:43:11.345Z,-3.07
2022-12-19T04:44:13.095Z,-3.06
2022-12-19T04:45:14.850Z,-3.06
2022-12-19T04:46:16.585Z,-3.07
2022-12-19T04:47:18.295Z,-3.07
2022-12-19T04:48:20.026Z,-3.06
2022-12-19T04:49:21.771Z,-3.06
2022-12-19T04:50:23.564Z,-3.06
2022-12-19T04:51:25.244Z,-3.04
2022-12-19T04:52:26.977Z,-3.06
2022-12-19T04:53:28.696Z,-3.05
2022-12-19T04:54:30.436Z,-3.06
2022-12-19T04:55:32.164Z,-3.04
2022-12-19T04:56:33.885Z,-3.05
2022-12-19T04:57:35.616Z,-3.05
2022-12-19T04:58:37.349Z,-3.03
2022-12-19T04:59:39.088Z,-3.03
2022-12-19T05:00:40.836Z,-3.03
2022-12-19T05:01:44.017Z,-3.03
2022-12-19T05:02:44.523Z,-3.03
2022-12-19T05:03:51.329Z,-3.03
2022-12-19T05:04:47.739Z,-3.03
2022-12-19T05:05:49.486Z,-3.02
2022-12-19T05:06:51.217Z,-3.01
2022-12-19T05:07:52.974Z,-3.02
2022-12-19T05:08:54.689Z,-3.01
2022-12-19T05:09:56.412Z,-3.02
2022-12-19T05:10:58.150Z,-3.01
2022-12-19T05:11:59.875Z,-3.01
2022-12-19T05:13:01.624Z,-3.01
2022-12-19T05:14:03.411Z,-3
2022-12-19T05:15:05.068Z,-3.01
2022-12-19T05:16:06.834Z,-3.01
2022-12-19T05:17:08.548Z,-3
2022-12-19T05:18:10.275Z,-3
2022-12-19T05:19:12.006Z,-3
2022-12-19T05:20:13.762Z,-3
2022-12-19T05:21:15.484Z,-2.99
2022-12-19T05:22:17.224Z,-3
2022-12-19T05:23:18.943Z,-2.99
2022-12-19T05:24:20.685Z,-2.98
2022-12-19T05:25:22.431Z,-2.97
2022-12-19T05:26:24.138Z,-2.98
2022-12-19T05:27:25.870Z,-2.97
2022-12-19T05:28:27.614Z,-2.97
2022-12-19T05:29:29.342Z,-2.98
2022-12-19T05:30:31.094Z,-2.98
2022-12-19T05:31:32.917Z,-2.97
2022-12-19T05:32:34.548Z,-2.95
2022-12-19T05:33:36.278Z,-2.95
2022-12-19T05:34:38.015Z,-2.95
2022-12-19T05:35:39.749Z,-2.95
2022-12-19T05:36:41.482Z,-2.95
2022-12-19T05:37:43.214Z,-2.94
2022-12-19T05:38:44.943Z,-2.93
2022-12-19T05:39:46.674Z,-2.93
2022-12-19T05:40:48.411Z,-2.93
2022-12-19T05:41:50.148Z,-2.93
2022-12-19T05:42:51.874Z,-2.92
2022-12-19T05:43:53.601Z,-2.91
2022-12-19T05:44:55.339Z,-2.91
2022-12-19T05:45:57.080Z,-2.91
2022-12-19T05:46:58.832Z,-2.9
2022-12-19T05:48:01.640Z,-2.91
2022-12-19T05:49:02.301Z,-2.92
2022-12-19T05:50:04.016Z,-2.92
2022-12-19T05:51:05.766Z,-2.91
2022-12-19T05:52:07.496Z,-2.9
2022-12-19T05:53:09.211Z,-2.91
2022-12-19T05:54:10.941Z,-2.91
2022-12-19T05:55:12.671Z,-2.9
2022-12-19T05:56:14.448Z,-2.92
2022-12-19T05:57:16.139Z,-2.9
2022-12-19T05:58:17.879Z,-2.89
2022-12-19T05:59:19.652Z,-2.9
2022-12-19T06:00:21.361Z,-2.89
2022-12-19T06:01:23.178Z,-2.88
2022-12-19T06:02:24.962Z,-2.88
2022-12-19T06:03:26.635Z,-2.88
2022-12-19T06:04:28.271Z,-2.88
2022-12-19T06:05:30.038Z,-2.88
2022-12-19T06:06:31.731Z,-2.88
2022-12-19T06:07:33.483Z,-2.88
2022-12-19T06:08:35.198Z,-2.88
2022-12-19T06:09:36.933Z,-2.89
2022-12-19T06:10:38.673Z,-2.87
2022-12-19T06:11:40.403Z,-2.87
2022-12-19T06:12:42.133Z,-2.89
2022-12-19T06:13:43.867Z,-2.88
2022-12-19T06:14:45.597Z,-2.88
2022-12-19T06:15:47.443Z,-2.87
2022-12-19T06:16:49.058Z,-2.86
2022-12-19T06:17:50.785Z,-2.86
2022-12-19T06:18:52.557Z,-2.87
2022-12-19T06:19:54.255Z,-2.86
2022-12-19T06:20:56.004Z,-2.85
2022-12-19T06:21:57.732Z,-2.86
2022-12-19T06:22:59.445Z,-2.85
2022-12-19T06:24:01.187Z,-2.84
2022-12-19T06:25:02.932Z,-2.84
2022-12-19T06:26:04.657Z,-2.84
2022-12-19T06:27:06.390Z,-2.83
2022-12-19T06:28:08.121Z,-2.82
2022-12-19T06:29:09.843Z,-2.82
2022-12-19T06:30:11.590Z,-2.82
2022-12-19T06:31:13.375Z,-2.81
2022-12-19T06:32:15.062Z,-2.79
2022-12-19T06:33:16.776Z,-2.79
2022-12-19T06:34:46.878Z,-2.78
2022-12-19T06:35:20.266Z,-2.78
2022-12-19T06:36:21.982Z,-2.76
2022-12-19T06:37:23.705Z,-2.76
2022-12-19T06:38:25.443Z,-2.75
2022-12-19T06:39:27.163Z,-2.74
2022-12-19T06:40:28.889Z,-2.74
2022-12-19T06:41:30.640Z,-2.75
2022-12-19T06:42:32.352Z,-2.74
2022-12-19T06:43:34.097Z,-2.74
2022-12-19T06:44:35.843Z,-2.74
2022-12-19T06:45:37.621Z,-2.72
2022-12-19T06:46:39.296Z,-2.71
2022-12-19T06:47:41.038Z,-2.72
2022-12-19T06:48:42.793Z,-2.71
2022-12-19T06:49:44.500Z,-2.69
2022-12-19T06:50:46.240Z,-2.7
2022-12-19T06:51:47.967Z,-2.68
2022-12-19T06:52:49.693Z,-2.68
2022-12-19T06:53:51.429Z,-2.68
2022-12-19T06:54:53.159Z,-2.67
2022-12-19T06:55:54.899Z,-2.67
2022-12-19T06:56:56.625Z,-2.66
2022-12-19T06:57:58.360Z,-2.67
2022-12-19T06:59:00.108Z,-2.66
2022-12-19T07:00:01.835Z,-2.64
2022-12-19T07:01:03.602Z,-2.64
2022-12-19T07:02:05.455Z,-2.64
2022-12-19T07:03:07.058Z,-2.63
2022-12-19T07:04:08.755Z,-2.63
2022-12-19T07:05:10.479Z,-2.63
2022-12-19T07:06:12.219Z,-2.63
2022-12-19T07:07:13.981Z,-2.62
2022-12-19T07:08:15.701Z,-2.62
2022-12-19T07:09:17.429Z,-2.61
2022-12-19T07:10:19.221Z,-2.6
2022-12-19T07:11:20.877Z,-2.6
2022-12-19T07:12:22.631Z,-2.59
2022-12-19T07:13:24.357Z,-2.59
2022-12-19T07:14:26.092Z,-2.59
2022-12-19T07:15:27.826Z,-2.58
2022-12-19T07:16:29.556Z,-2.59
2022-12-19T07:17:31.275Z,-2.57
2022-12-19T07:18:33.019Z,-2.57
2022-12-19T07:19:34.808Z,-2.57
2022-12-19T07:20:39.590Z,-2.55
2022-12-19T07:21:38.225Z,-2.56
2022-12-19T07:22:39.959Z,-2.54
2022-12-19T07:23:41.735Z,-2.54
2022-12-19T07:24:43.405Z,-2.54
2022-12-19T07:25:45.172Z,-2.53
2022-12-19T07:26:46.882Z,-2.52
2022-12-19T07:27:48.613Z,-2.52
2022-12-19T07:28:50.358Z,-2.5
2022-12-19T07:29:52.084Z,-2.5
2022-12-19T07:30:53.807Z,-2.5
2022-12-19T07:31:55.579Z,-2.48
2022-12-19T07:32:57.283Z,-2.49
2022-12-19T07:33:59.025Z,-2.48
2022-12-19T07:35:00.754Z,-2.47
2022-12-19T07:36:02.497Z,-2.46
2022-12-19T07:37:04.230Z,-2.46
2022-12-19T07:38:05.982Z,-2.45
2022-12-19T07:39:07.671Z,-2.45
2022-12-19T07:40:09.402Z,-2.44
2022-12-19T07:41:11.154Z,-2.44
2022-12-19T07:42:12.878Z,-2.43
2022-12-19T07:43:14.620Z,-2.42
2022-12-19T07:44:16.359Z,-2.41
2022-12-19T07:45:18.102Z,-2.41
2022-12-19T07:46:19.887Z,-2.4
2022-12-19T07:47:21.548Z,-2.4
2022-12-19T07:48:23.269Z,-2.39
2022-12-19T07:49:25.024Z,-2.38
2022-12-19T07:50:26.764Z,-2.37
2022-12-19T07:51:28.487Z,-2.36
2022-12-19T07:52:30.210Z,-2.36
2022-12-19T07:53:31.935Z,-2.36
2022-12-19T07:54:33.657Z,-2.35
2022-12-19T07:55:35.541Z,-2.35
2022-12-19T07:56:37.194Z,-2.33
2022-12-19T07:57:38.910Z,-2.33
2022-12-19T07:58:40.609Z,-2.32
2022-12-19T07:59:42.336Z,-2.32
2022-12-19T08:00:44.213Z,-2.31
2022-12-19T08:01:45.899Z,-2.31
2022-12-19T08:02:47.663Z,-2.3
2022-12-19T08:03:49.303Z,-2.29
2022-12-19T08:04:51.013Z,-2.28
2022-12-19T08:05:52.802Z,-2.29
2022-12-19T08:06:54.476Z,-2.28
2022-12-19T08:07:56.218Z,-2.28
2022-12-19T08:08:57.946Z,-2.27
2022-12-19T08:09:59.684Z,-2.27
2022-12-19T08:11:01.418Z,-2.27
2022-12-19T08:12:03.162Z,-2.25
2022-12-19T08:13:04.879Z,-2.25
2022-12-19T08:14:06.600Z,-2.25
2022-12-19T08:15:08.629Z,-2.24
2022-12-19T08:16:10.212Z,-2.23
2022-12-19T08:17:20.386Z,-2.22
2022-12-19T08:18:13.537Z,-2.21
2022-12-19T08:19:15.263Z,-2.21
2022-12-19T08:20:17.000Z,-2.2
2022-12-19T08:21:18.730Z,-2.2
2022-12-19T08:22:20.486Z,-2.19
2022-12-19T08:23:22.213Z,-2.19
2022-12-19T08:24:23.938Z,-2.17
2022-12-19T08:25:25.659Z,-2.18
2022-12-19T08:26:31.127Z,-2.17
2022-12-19T08:27:29.141Z,-2.16
2022-12-19T08:28:30.874Z,-2.15
2022-12-19T08:29:32.587Z,-2.15
2022-12-19T08:30:34.372Z,-2.14
2022-12-19T08:31:36.056Z,-2.14
2022-12-19T08:32:37.801Z,-2.13
2022-12-19T08:33:39.541Z,-2.13
2022-12-19T08:34:41.269Z,-2.13
2022-12-19T08:35:43.025Z,-2.12
2022-12-19T08:36:44.717Z,-2.12
2022-12-19T08:37:46.453Z,-2.11
2022-12-19T08:38:48.199Z,-2.11
2022-12-19T08:39:49.927Z,-2.1
2022-12-19T08:40:51.667Z,-2.09
2022-12-19T08:41:53.425Z,-2.09
2022-12-19T08:42:55.127Z,-2.08
2022-12-19T08:43:56.854Z,-2.08
2022-12-19T08:44:58.587Z,-2.06
2022-12-19T08:46:00.421Z,-2.05
2022-12-19T08:47:02.047Z,-2.04
2022-12-19T08:48:03.785Z,-2.04
2022-12-19T08:49:05.509Z,-2.04
2022-12-19T08:50:07.250Z,-2.01
2022-12-19T08:51:08.986Z,-2.02
2022-12-19T08:52:10.716Z,-2.01
2022-12-19T08:53:12.444Z,-1.99
2022-12-19T08:54:14.197Z,-1.99
2022-12-19T08:55:15.917Z,-1.97
2022-12-19T08:56:17.702Z,-1.97
2022-12-19T08:57:19.410Z,-1.95
2022-12-19T08:58:21.134Z,-1.94
2022-12-19T08:59:30.955Z,-1.94
2022-12-19T09:00:24.601Z,-1.93
2022-12-19T09:01:26.410Z,-1.93
2022-12-19T09:02:28.261Z,-1.92
2022-12-19T09:03:39.730Z,-1.91
2022-12-19T09:05:16.090Z,-1.9
2022-12-19T09:06:05.128Z,-1.89
2022-12-19T09:06:35.187Z,-1.87
2022-12-19T09:07:38.832Z,-1.86
2022-12-19T09:08:38.415Z,-1.85
2022-12-19T09:09:40.160Z,-1.84
2022-12-19T09:10:41.876Z,-1.83
2022-12-19T09:11:47.723Z,-1.81
2022-12-19T09:12:45.366Z,-1.81
2022-12-19T09:13:47.083Z,-1.8
2022-12-19T09:14:48.796Z,-1.79
2022-12-19T09:15:50.535Z,-1.78
2022-12-19T09:16:52.326Z,-1.76
2022-12-19T09:17:53.999Z,-1.75
2022-12-19T09:18:55.740Z,-1.75
2022-12-19T09:19:57.465Z,-1.73
2022-12-19T09:20:59.205Z,-1.72
2022-12-19T09:22:00.962Z,-1.71
2022-12-19T09:23:02.658Z,-1.7
2022-12-19T09:24:07.872Z,-1.68
2022-12-19T09:25:06.157Z,-1.67
2022-12-19T09:26:07.887Z,-1.67
2022-12-19T09:27:09.609Z,-1.64
2022-12-19T09:28:27.471Z,-1.63
2022-12-19T09:29:20.923Z,-1.62
2022-12-19T09:30:14.789Z,-1.6
2022-12-19T09:31:16.586Z,-1.58
2022-12-19T09:32:18.253Z,-1.57
2022-12-19T09:33:19.989Z,-1.55
2022-12-19T09:34:22.013Z,-1.54
2022-12-19T09:35:27.026Z,-1.52
2022-12-19T09:36:25.210Z,-1.51
2022-12-19T09:37:26.935Z,-1.5
2022-12-19T09:38:28.652Z,-1.48
2022-12-19T09:39:30.400Z,-1.46
2022-12-19T09:40:32.127Z,-1.45
2022-12-19T09:41:33.868Z,-1.44
2022-12-19T09:42:40.893Z,-1.44
2022-12-19T09:43:41.294Z,-1.41
2022-12-19T09:44:39.054Z,-1.41
2022-12-19T09:45:40.790Z,-1.4
2022-12-19T09:46:42.586Z,-1.38
2022-12-19T09:47:44.257Z,-1.37
2022-12-19T09:48:49.471Z,-1.38
2022-12-19T09:49:47.737Z,-1.36
2022-12-19T09:50:49.467Z,-1.36
2022-12-19T09:51:51.193Z,-1.35
2022-12-19T09:52:52.925Z,-1.34
2022-12-19T09:53:54.937Z,-1.34
2022-12-19T09:54:56.384Z,-1.32
2022-12-19T09:55:58.150Z,-1.32
2022-12-19T09:56:59.866Z,-1.31
2022-12-19T09:58:01.568Z,-1.29
2022-12-19T09:59:03.342Z,-1.3
2022-12-19T10:00:05.051Z,-1.28
2022-12-19T10:01:06.821Z,-1.28
2022-12-19T10:02:08.638Z,-1.27
2022-12-19T10:03:10.469Z,-1.27
2022-12-19T10:04:11.975Z,-1.27
2022-12-19T10:05:23.274Z,-1.26
2022-12-19T10:07:08.760Z,-1.26
2022-12-19T10:07:40.206Z,-1.25
2022-12-19T10:08:18.981Z,-1.24
2022-12-19T10:12:23.032Z,-1.26
2022-12-19T10:12:35.333Z,-1.25
2022-12-19T10:12:42.159Z,-1.24
2022-12-19T10:12:42.886Z,-1.25
2022-12-19T10:13:27.598Z,-1.24
2022-12-19T10:14:29.323Z,-1.23
2022-12-19T10:15:31.152Z,-1.23
2022-12-19T10:16:32.844Z,-1.22
2022-12-19T10:17:34.528Z,-1.21
2022-12-19T10:18:36.273Z,-1.2
2022-12-19T10:19:37.985Z,-1.22
2022-12-19T10:20:39.736Z,-1.2
2022-12-19T10:22:16.215Z,-1.2
2022-12-19T10:22:43.191Z,-1.2
2022-12-19T10:23:45.185Z,-1.19
2022-12-19T10:24:46.665Z,-1.19
2022-12-19T10:25:48.379Z,-1.19
2022-12-19T10:26:50.144Z,-1.17
2022-12-19T10:27:58.841Z,-1.16
2022-12-19T10:28:58.795Z,-1.17
2022-12-19T10:30:00.511Z,-1.17
2022-12-19T10:31:09.047Z,-1.15
2022-12-19T10:32:04.117Z,-1.15
2022-12-19T10:33:05.697Z,-1.13
2022-12-19T10:34:07.453Z,-1.14
2022-12-19T10:35:09.163Z,-1.12
2022-12-19T10:36:10.962Z,-1.13
2022-12-19T10:37:27.106Z,-1.12
2022-12-19T10:38:14.397Z,-1.12
2022-12-19T10:39:16.111Z,-1.12
2022-12-19T10:40:22.271Z,-1.11
2022-12-19T10:41:19.572Z,-1.11
2022-12-19T10:42:21.310Z,-1.1
2022-12-19T10:43:30.664Z,-1.1
2022-12-19T10:44:24.758Z,-1.08
2022-12-19T10:45:26.509Z,-1.08
2022-12-19T10:46:28.278Z,-1.08
2022-12-19T10:47:29.996Z,-1.07
2022-12-19T10:48:31.855Z,-1.07
2022-12-19T10:49:33.451Z,-1.07
2022-12-19T10:50:35.192Z,-1.06
2022-12-19T10:51:36.912Z,-1.07
2022-12-19T10:52:38.711Z,-1.05
2022-12-19T10:53:40.360Z,-1.05
2022-12-19T10:54:42.084Z,-1.05
2022-12-19T10:55:43.837Z,-1.04
2022-12-19T10:56:45.597Z,-1.03
2022-12-19T10:57:47.327Z,-1.04
2022-12-19T10:58:49.031Z,-1.04
2022-12-19T10:59:50.821Z,-1.02
2022-12-19T11:00:52.510Z,-1.02
2022-12-19T11:02:00.818Z,-1.03
2022-12-19T11:02:56.062Z,-1.01
2022-12-19T11:03:57.706Z,-1.03
2022-12-19T11:04:59.533Z,-1.01
2022-12-19T11:06:01.162Z,-1
2022-12-19T11:07:02.942Z,-0.99
2022-12-19T11:08:04.649Z,-0.98
2022-12-19T11:09:06.383Z,-0.98
2022-12-19T11:10:51.595Z,-0.97
2022-12-19T11:12:38.867Z,-0.96
2022-12-19T11:16:18.647Z,-0.95
2022-12-19T11:19:39.732Z,-0.93
2022-12-19T11:20:30.674Z,-0.93
2022-12-19T11:21:44.183Z,-0.91
2022-12-19T11:22:14.546Z,-0.87
2022-12-19T11:22:26.443Z,-0.89
2022-12-19T11:28:07.844Z,-0.85
2022-12-19T11:29:19.131Z,-0.85
2022-12-19T11:29:27.284Z,-0.87
2022-12-19T11:29:33.107Z,-0.82
2022-12-19T11:29:34.556Z,-0.81
2022-12-19T11:29:38.523Z,-0.81
2022-12-19T11:29:38.526Z,-0.78
2022-12-19T11:29:40.174Z,-0.83
2022-12-19T11:29:42.536Z,-0.77
2022-12-19T11:30:38.459Z,-0.79
2022-12-19T11:30:45.890Z,-0.78
2022-12-19T11:32:31.471Z,-0.75
2022-12-19T11:32:47.017Z,-0.74
2022-12-19T11:33:47.917Z,-0.74
2022-12-19T11:34:49.654Z,-0.73
2022-12-19T11:35:51.422Z,-0.72
2022-12-19T11:36:53.105Z,-0.73
2022-12-19T11:37:55.895Z,-0.72
2022-12-19T11:38:56.566Z,-0.71
2022-12-19T11:39:58.314Z,-0.7
2022-12-19T11:41:00.050Z,-0.7
2022-12-19T11:42:01.782Z,-0.69
2022-12-19T11:43:42.581Z,-0.68
2022-12-19T11:44:05.257Z,-0.66
2022-12-19T11:45:06.971Z,-0.66
2022-12-19T11:46:09.121Z,-0.65
2022-12-19T11:47:10.440Z,-0.64
2022-12-19T11:48:12.182Z,-0.64
2022-12-19T11:49:13.897Z,-0.65
2022-12-19T11:50:15.647Z,-0.65
2022-12-19T11:51:17.372Z,-0.64
2022-12-19T11:52:54.308Z,-0.65
2022-12-19T11:53:20.903Z,-0.66
2022-12-19T11:54:22.710Z,-0.66
2022-12-19T11:55:24.350Z,-0.67
2022-12-19T11:56:26.044Z,-0.66
2022-12-19T11:57:28.041Z,-0.67
2022-12-19T11:58:29.506Z,-0.68
2022-12-19T11:59:31.255Z,-0.7
2022-12-19T12:00:33.030Z,-0.68
2022-12-19T12:01:34.759Z,-0.7
2022-12-19T12:02:36.430Z,-0.7
2022-12-19T12:03:38.421Z,-0.71
2022-12-19T12:04:39.914Z,-0.72
2022-12-19T12:05:41.623Z,-0.71
2022-12-19T12:06:45.369Z,-0.72
2022-12-19T12:08:39.271Z,-0.71
2022-12-19T12:10:56.412Z,-0.72
2022-12-19T12:13:52.859Z,-0.71
2022-12-19T12:17:27.003Z,-0.71
2022-12-19T12:17:58.497Z,-0.71
2022-12-19T12:21:42.144Z,-0.7
2022-12-19T12:22:34.226Z,-0.71
2022-12-19T12:23:19.554Z,-0.7
2022-12-19T12:28:28.279Z,-0.68
2022-12-19T12:28:58.897Z,-0.69
2022-12-19T12:31:00.747Z,-0.69
2022-12-19T12:31:07.464Z,-0.69
2022-12-19T12:31:13.347Z,-0.68
2022-12-19T12:31:22.910Z,-0.69
2022-12-19T12:31:27.995Z,-0.68
2022-12-19T12:31:32.292Z,-0.69
2022-12-19T12:31:39.475Z,-0.68
2022-12-19T12:31:39.982Z,-0.69
2022-12-19T12:31:40.355Z,-0.68
2022-12-19T12:31:42.404Z,-0.7
2022-12-19T12:31:46.586Z,-0.68
2022-12-19T12:32:00.367Z,-0.68
2022-12-19T12:32:03.523Z,-0.69
2022-12-19T12:35:31.722Z,-0.66
2022-12-19T12:35:51.815Z,-0.65
2022-12-19T12:35:55.110Z,-0.63
2022-12-19T12:36:57.263Z,-0.63
2022-12-19T12:37:52.455Z,-0.62
2022-12-19T12:38:37.736Z,-0.59
2022-12-19T12:39:38.847Z,-0.59
2022-12-19T12:40:40.593Z,-0.59
2022-12-19T12:41:42.337Z,-0.58
2022-12-19T12:42:44.036Z,-0.57
2022-12-19T12:43:45.771Z,-0.55
2022-12-19T12:44:47.567Z,-0.54
2022-12-19T12:45:49.304Z,-0.53
2022-12-19T12:46:50.963Z,-0.52
2022-12-19T12:47:52.693Z,-0.51
2022-12-19T12:48:54.434Z,-0.5
2022-12-19T12:49:56.161Z,-0.49
2022-12-19T12:50:57.876Z,-0.5
2022-12-19T12:51:59.636Z,-0.49
2022-12-19T12:53:01.354Z,-0.47
2022-12-19T12:54:03.115Z,-0.47
2022-12-19T12:55:05.905Z,-0.46
2022-12-19T12:56:07.196Z,-0.45
2022-12-19T12:57:08.303Z,-0.45
2022-12-19T12:58:14.098Z,-0.44
2022-12-19T12:59:11.759Z,-0.45
2022-12-19T13:00:13.588Z,-0.45
2022-12-19T13:01:15.316Z,-0.45
2022-12-19T13:02:17.093Z,-0.44
2022-12-19T13:03:18.763Z,-0.44
2022-12-19T13:04:20.420Z,-0.43
2022-12-19T13:05:22.179Z,-0.44
2022-12-19T13:06:23.925Z,-0.43
2022-12-19T13:07:25.624Z,-0.43
2022-12-19T13:08:27.359Z,-0.42
2022-12-19T13:09:28.109Z,-0.42
2022-12-19T13:10:30.842Z,-0.42
2022-12-19T13:11:32.548Z,-0.42
2022-12-19T13:12:34.384Z,-0.42
2022-12-19T13:13:36.022Z,-0.42
2022-12-19T13:14:37.764Z,-0.4
2022-12-19T13:15:39.476Z,-0.4
2022-12-19T13:16:41.246Z,-0.4
2022-12-19T13:17:42.940Z,-0.4
2022-12-19T13:18:44.681Z,-0.39
2022-12-19T13:19:46.405Z,-0.4
2022-12-19T13:20:48.334Z,-0.4
2022-12-19T13:21:49.880Z,-0.41